Time;durP1;ratioP1;P1;durP2;ratioP2;P2;SDS_P1;SDS_P2;PMS_P1;PMS_P2;Temp;Humidity;BMP_temperature;BMP_pressure;BME280_temperature;BME280_humidity;BME280_pressure;Samples;Min_cycle;Max_cycle;Signal;HPM_P1;HPM_P2
2022/08/08 00:00:53;;;;;;;19.17;10.90;;;18.00;99.90;;;;;;5027802;28;20204;-70
2022/08/08 00:03:25;;;;;;;12.37;8.37;;;18.10;99.90;;;;;;5034381;28;20193;-71
2022/08/08 00:05:56;;;;;;;14.30;9.00;;;18.10;99.90;;;;;;5015158;28;20193;-71
2022/08/08 00:08:28;;;;;;;16.60;9.90;;;18.10;99.90;;;;;;5015517;28;20648;-71
2022/08/08 00:10:59;;;;;;;15.33;10.47;;;18.20;99.90;;;;;;5015471;28;20623;-71
2022/08/08 00:13:31;;;;;;;11.90;8.50;;;18.20;99.90;;;;;;5015507;28;20627;-70
2022/08/08 00:16:04;;;;;;;33.23;11.83;;;18.20;99.90;;;;;;5019821;28;20253;-70
2022/08/08 00:18:45;;;;;;;15.50;10.00;;;18.20;99.90;;;;;;5035019;28;20191;-71
2022/08/08 00:21:18;;;;;;;15.53;9.80;;;18.20;99.90;;;;;;5035070;28;20288;-70
2022/08/08 00:23:50;;;;;;;16.37;9.90;;;18.20;99.90;;;;;;5015626;28;20206;-72
2022/08/08 00:26:23;;;;;;;15.07;9.50;;;18.20;99.90;;;;;;5015257;28;20281;-70
2022/08/08 00:28:54;;;;;;;15.70;10.57;;;18.20;99.90;;;;;;5014825;28;20676;-69
2022/08/08 00:31:29;;;;;;;18.03;10.47;;;18.20;99.90;;;;;;5014896;28;20282;-70
2022/08/08 00:36:51;;;;;;;16.63;9.97;;;18.00;99.90;;;;;;5014275;28;20202;-70
2022/08/08 00:39:26;;;;;;;19.00;10.20;;;18.10;99.90;;;;;;5014911;28;20278;-71
2022/08/08 00:42:35;;;;;;;17.70;10.53;;;18.10;99.90;;;;;;5014500;28;20604;-70
2022/08/08 00:45:53;;;;;;;15.30;10.17;;;18.10;99.90;;;;;;4999265;28;20264;-71
2022/08/08 00:48:55;;;;;;;14.23;9.50;;;18.10;99.90;;;;;;5014822;28;20216;-71
2022/08/08 00:51:55;;;;;;;19.23;9.93;;;18.10;99.90;;;;;;5014827;28;20305;-70
2022/08/08 00:54:45;;;;;;;21.03;10.57;;;18.10;99.90;;;;;;5014697;28;20289;-73
2022/08/08 00:58:11;;;;;;;16.47;10.20;;;18.00;99.90;;;;;;5013903;28;20188;-71
2022/08/08 01:00:45;;;;;;;12.60;9.00;;;18.00;99.90;;;;;;4978915;28;20221;-70
2022/08/08 01:03:36;;;;;;;13.33;8.70;;;18.00;99.90;;;;;;5009277;28;20214;-71
2022/08/08 01:06:46;;;;;;;34.23;10.60;;;18.00;99.90;;;;;;5014379;28;20199;-71
2022/08/08 01:10:09;;;;;;;20.97;11.20;;;18.00;99.90;;;;;;5011738;28;20209;-72
2022/08/08 01:13:02;;;;;;;19.93;9.67;;;18.10;99.90;;;;;;5014245;28;20601;-70
2022/08/08 01:15:54;;;;;;;42.30;10.50;;;18.10;99.90;;;;;;5012388;28;20293;-71
2022/08/08 01:19:01;;;;;;;26.10;10.20;;;18.00;99.90;;;;;;5014521;28;20193;-71
2022/08/08 01:21:53;;;;;;;30.33;11.53;;;18.00;99.90;;;;;;5014041;28;20564;-71
2022/08/08 01:24:43;;;;;;;15.27;10.10;;;17.90;99.90;;;;;;5013977;28;20284;-70
2022/08/08 01:27:43;;;;;;;25.93;11.40;;;17.90;99.90;;;;;;5012134;28;20249;-71
2022/08/08 01:30:46;;;;;;;16.17;10.47;;;17.90;99.90;;;;;;5013353;28;20774;-70
2022/08/08 01:33:47;;;;;;;18.50;9.40;;;17.90;99.90;;;;;;5014035;28;20715;-71
2022/08/08 01:36:56;;;;;;;20.83;10.33;;;17.90;99.90;;;;;;5013547;28;20276;-72
2022/08/08 01:39:34;;;;;;;35.23;10.50;;;17.90;99.90;;;;;;4993958;28;20388;-70
2022/08/08 01:42:08;;;;;;;41.33;11.27;;;17.90;99.90;;;;;;4994371;28;20195;-71
2022/08/08 01:44:58;;;;;;;70.47;11.40;;;17.90;99.90;;;;;;4998682;28;20617;-71
2022/08/08 01:47:46;;;;;;;22.53;10.47;;;17.80;99.90;;;;;;5013723;28;20209;-71
2022/08/08 01:50:27;;;;;;;31.53;10.33;;;17.70;99.90;;;;;;5013334;28;20257;-71
2022/08/08 01:53:02;;;;;;;17.97;10.20;;;17.70;99.90;;;;;;5011616;28;20289;-72
2022/08/08 01:55:41;;;;;;;12.80;9.43;;;17.60;99.90;;;;;;5013447;28;20248;-72
2022/08/08 01:58:30;;;;;;;13.77;9.30;;;17.70;99.90;;;;;;5012371;28;20194;-70
2022/08/08 02:01:10;;;;;;;39.50;11.23;;;17.70;99.90;;;;;;5000246;28;20574;-71
2022/08/08 02:03:49;;;;;;;13.40;9.63;;;17.70;99.90;;;;;;5013257;28;20274;-71
2022/08/08 02:06:26;;;;;;;35.87;10.87;;;17.70;99.90;;;;;;5013499;28;20280;-71
2022/08/08 02:09:01;;;;;;;50.37;11.17;;;17.70;99.90;;;;;;5012427;28;20742;-70
2022/08/08 02:11:34;;;;;;;29.40;11.70;;;17.70;99.90;;;;;;5013027;28;20190;-71
2022/08/08 02:14:05;;;;;;;36.30;11.67;;;17.70;99.90;;;;;;5012502;28;20348;-71
2022/08/08 02:16:43;;;;;;;41.03;11.37;;;17.60;99.90;;;;;;5012623;28;20280;-70
2022/08/08 02:19:17;;;;;;;48.60;11.50;;;17.60;99.90;;;;;;5013169;28;20235;-70
2022/08/08 02:24:52;;;;;;;18.97;9.67;;;17.60;99.90;;;;;;5002150;28;20202;-70
2022/08/08 02:27:29;;;;;;;18.13;9.93;;;17.60;99.90;;;;;;5010470;28;20241;-70
2022/08/08 02:30:05;;;;;;;24.30;9.83;;;17.60;99.90;;;;;;5012928;28;20233;-71
2022/08/08 02:32:47;;;;;;;13.27;9.43;;;17.60;99.90;;;;;;5012683;28;20198;-70
2022/08/08 02:35:40;;;;;;;32.53;10.00;;;17.70;99.90;;;;;;5011603;28;20678;-71
2022/08/08 02:38:44;;;;;;;29.50;10.37;;;17.60;99.90;;;;;;5007017;28;20275;-71
2022/08/08 02:41:50;;;;;;;31.77;10.87;;;17.60;99.90;;;;;;5012858;28;20679;-69
2022/08/08 02:45:12;;;;;;;24.63;10.73;;;17.60;99.90;;;;;;5012407;28;20284;-71
2022/08/08 02:48:25;;;;;;;17.57;10.30;;;17.60;99.90;;;;;;4994869;28;20263;-71
2022/08/08 02:51:27;;;;;;;16.60;9.53;;;17.60;99.90;;;;;;4992829;28;20283;-72
2022/08/08 02:54:18;;;;;;;22.70;10.80;;;17.60;99.90;;;;;;4993435;28;20656;-72
2022/08/08 02:57:11;;;;;;;17.80;9.63;;;17.70;99.90;;;;;;5009663;28;20667;-71
2022/08/08 03:00:14;;;;;;;19.87;10.33;;;17.70;99.90;;;;;;5012028;28;20191;-71
2022/08/08 03:03:25;;;;;;;20.33;10.33;;;17.80;99.90;;;;;;5011769;28;20199;-71
2022/08/08 03:06:29;;;;;;;17.43;9.73;;;17.80;99.90;;;;;;5001763;28;20217;-72
2022/08/08 03:09:33;;;;;;;18.07;9.20;;;17.70;99.90;;;;;;5012349;28;20223;-72
2022/08/08 03:12:36;;;;;;;15.63;9.03;;;17.70;99.90;;;;;;5011235;28;20236;-71
2022/08/08 03:15:24;;;;;;;20.03;10.30;;;17.80;99.90;;;;;;5012047;28;20193;-71
2022/08/08 03:17:55;;;;;;;24.37;11.73;;;17.80;99.90;;;;;;5011082;28;20292;-71
2022/08/08 03:20:22;;;;;;;18.63;10.73;;;17.80;99.90;;;;;;5011806;28;20286;-70
2022/08/08 03:22:52;;;;;;;14.93;9.60;;;17.80;99.90;;;;;;5012174;28;20304;-71
2022/08/08 03:25:22;;;;;;;22.60;10.00;;;17.80;99.90;;;;;;5011686;28;20301;-71
2022/08/08 03:27:53;;;;;;;15.83;9.80;;;17.80;99.90;;;;;;5012063;28;20650;-71
2022/08/08 03:30:20;;;;;;;17.37;9.63;;;17.80;99.90;;;;;;5011950;28;20262;-70
2022/08/08 03:35:38;;;;;;;15.77;9.70;;;17.70;99.90;;;;;;5009098;28;20247;-71
2022/08/08 03:38:07;;;;;;;11.87;8.57;;;17.70;99.90;;;;;;5007618;28;20325;-71
2022/08/08 03:40:34;;;;;;;21.47;10.03;;;17.70;99.90;;;;;;5010268;28;20206;-71
2022/08/08 03:43:01;;;;;;;17.50;9.63;;;17.70;99.90;;;;;;5011288;28;20735;-70
2022/08/08 03:45:29;;;;;;;18.03;10.17;;;17.70;99.90;;;;;;5009292;28;20205;-70
2022/08/08 03:47:57;;;;;;;16.90;10.07;;;17.70;99.90;;;;;;5011173;28;20233;-71
2022/08/08 03:50:25;;;;;;;14.80;9.10;;;17.70;99.90;;;;;;5007277;28;20305;-70
2022/08/08 03:52:52;;;;;;;16.47;9.57;;;17.70;99.90;;;;;;5009261;28;20296;-70
2022/08/08 03:55:23;;;;;;;13.57;8.77;;;17.70;99.90;;;;;;5011508;28;20457;-70
2022/08/08 03:57:52;;;;;;;14.03;9.43;;;17.70;99.90;;;;;;5011790;28;20690;-71
2022/08/08 04:00:22;;;;;;;15.47;10.77;;;17.80;99.90;;;;;;5011676;28;20209;-70
2022/08/08 04:02:57;;;;;;;15.73;10.33;;;17.80;99.90;;;;;;5009481;28;20231;-72
2022/08/08 04:05:26;;;;;;;14.50;9.23;;;17.90;99.90;;;;;;5011587;28;20210;-70
2022/08/08 04:07:53;;;;;;;13.47;9.87;;;17.90;99.90;;;;;;5011326;28;20219;-70
2022/08/08 04:10:21;;;;;;;15.70;10.20;;;17.90;99.90;;;;;;5010354;28;20221;-71
2022/08/08 04:12:48;;;;;;;17.83;10.03;;;17.90;99.90;;;;;;5010779;28;20214;-71
2022/08/08 04:15:15;;;;;;;12.87;8.80;;;18.00;99.90;;;;;;5011225;28;20223;-71
2022/08/08 04:17:42;;;;;;;16.00;9.20;;;18.00;99.90;;;;;;5011410;28;20242;-72
2022/08/08 04:20:10;;;;;;;18.67;9.80;;;18.00;99.90;;;;;;5011035;28;20218;-72
2022/08/08 04:22:37;;;;;;;15.60;9.10;;;18.00;99.90;;;;;;5009999;28;20293;-72
2022/08/08 04:25:05;;;;;;;13.53;7.80;;;18.00;99.90;;;;;;5011520;28;20234;-72
2022/08/08 04:27:34;;;;;;;12.30;8.50;;;18.00;99.90;;;;;;5010465;28;20264;-72
2022/08/08 04:30:01;;;;;;;14.13;8.90;;;18.00;99.90;;;;;;5011342;28;20752;-71
2022/08/08 04:32:28;;;;;;;14.57;9.33;;;18.00;99.90;;;;;;5012759;28;20233;-71
2022/08/08 04:34:55;;;;;;;11.43;8.50;;;18.00;99.90;;;;;;5014794;28;20328;-71
2022/08/08 04:37:22;;;;;;;20.13;10.03;;;18.00;99.90;;;;;;5013705;28;20572;-71
2022/08/08 04:39:49;;;;;;;20.27;10.23;;;18.00;99.90;;;;;;5015108;28;20245;-73
2022/08/08 04:42:16;;;;;;;16.00;9.50;;;18.00;99.90;;;;;;5013254;28;20721;-72
2022/08/08 04:44:45;;;;;;;13.10;8.87;;;18.00;99.90;;;;;;5014998;28;20687;-72
2022/08/08 04:47:12;;;;;;;12.80;8.97;;;18.10;99.90;;;;;;5014552;28;20798;-71
2022/08/08 04:49:39;;;;;;;18.13;9.20;;;18.10;99.90;;;;;;5014472;28;20232;-71
2022/08/08 04:52:06;;;;;;;15.23;9.30;;;18.10;99.90;;;;;;5012219;28;20231;-70
2022/08/08 04:54:33;;;;;;;11.37;9.23;;;18.10;99.90;;;;;;5014635;28;20272;-71
2022/08/08 04:57:00;;;;;;;17.93;9.57;;;18.20;99.90;;;;;;5014507;28;20297;-72
2022/08/08 04:59:27;;;;;;;16.63;9.57;;;18.20;99.90;;;;;;5013136;28;20207;-71
2022/08/08 05:01:55;;;;;;;24.83;9.77;;;18.20;99.90;;;;;;5014337;28;20297;-71
2022/08/08 05:04:22;;;;;;;14.57;9.37;;;18.20;99.90;;;;;;5010266;28;20493;-72
2022/08/08 05:06:49;;;;;;;12.20;9.20;;;18.20;99.90;;;;;;5014461;28;20394;-71
2022/08/08 05:09:16;;;;;;;12.73;9.57;;;18.20;99.90;;;;;;5013965;28;20312;-71
2022/08/08 05:11:43;;;;;;;23.40;10.67;;;18.10;99.90;;;;;;5014278;28;20639;-72
2022/08/08 05:14:11;;;;;;;12.07;8.93;;;18.10;99.90;;;;;;5013194;28;20640;-72
2022/08/08 05:16:38;;;;;;;17.30;10.37;;;18.20;99.90;;;;;;5014349;28;20206;-71
2022/08/08 05:19:11;;;;;;;13.13;9.60;;;18.10;99.90;;;;;;5013664;28;20206;-71
2022/08/08 05:21:38;;;;;;;24.30;9.80;;;18.20;99.90;;;;;;5013183;28;20207;-71
2022/08/08 05:24:06;;;;;;;18.33;10.80;;;18.20;99.90;;;;;;5014035;28;20205;-71
2022/08/08 05:26:33;;;;;;;18.70;10.10;;;18.30;99.90;;;;;;5014110;28;20671;-71
2022/08/08 05:29:02;;;;;;;18.90;10.57;;;18.30;99.90;;;;;;5012466;28;20635;-72
2022/08/08 05:31:29;;;;;;;19.70;10.37;;;18.20;99.90;;;;;;5007575;28;20199;-72
2022/08/08 05:33:56;;;;;;;26.50;11.13;;;18.20;99.90;;;;;;5012060;28;20294;-72
2022/08/08 05:36:25;;;;;;;15.70;10.30;;;18.20;99.90;;;;;;5010731;28;20239;-72
2022/08/08 05:38:53;;;;;;;27.13;10.70;;;18.20;99.90;;;;;;5013990;28;20683;-71
2022/08/08 05:41:23;;;;;;;21.70;10.20;;;18.20;99.90;;;;;;5013452;28;20302;-70
2022/08/08 05:43:56;;;;;;;20.00;10.47;;;18.20;99.90;;;;;;5013433;28;20198;-71
2022/08/08 05:46:24;;;;;;;19.87;10.60;;;18.20;99.90;;;;;;5013068;28;20647;-72
2022/08/08 05:48:51;;;;;;;17.63;11.20;;;18.20;99.90;;;;;;5013487;28;20319;-72
2022/08/08 05:51:18;;;;;;;18.47;10.53;;;18.20;99.90;;;;;;5013200;28;20301;-73
2022/08/08 05:53:47;;;;;;;14.73;10.43;;;18.20;99.90;;;;;;5012708;28;20210;-71
2022/08/08 05:56:15;;;;;;;23.57;12.07;;;18.30;99.90;;;;;;5012496;28;20207;-72
2022/08/08 05:58:44;;;;;;;22.03;11.37;;;18.30;99.90;;;;;;5013479;28;20289;-71
2022/08/08 06:01:13;;;;;;;26.60;12.13;;;18.30;99.90;;;;;;5011241;28;20645;-72
2022/08/08 06:03:42;;;;;;;22.70;11.67;;;18.20;99.90;;;;;;5013116;28;20230;-72
2022/08/08 06:06:09;;;;;;;22.57;11.10;;;18.20;99.90;;;;;;5013217;28;20222;-71
2022/08/08 06:08:39;;;;;;;18.40;10.80;;;18.10;99.90;;;;;;5013085;28;20261;-71
2022/08/08 06:11:08;;;;;;;21.53;11.47;;;18.10;99.90;;;;;;5010026;28;20777;-72
2022/08/08 06:13:34;;;;;;;19.83;11.23;;;18.10;99.90;;;;;;5011575;28;20721;-71
2022/08/08 06:16:01;;;;;;;24.73;11.77;;;18.10;99.90;;;;;;5011455;28;20691;-71
2022/08/08 06:18:28;;;;;;;15.63;10.90;;;18.10;99.90;;;;;;5013019;28;20261;-72
2022/08/08 06:20:58;;;;;;;19.07;11.40;;;18.10;99.90;;;;;;5012980;28;20295;-74
2022/08/08 06:23:27;;;;;;;20.60;11.50;;;18.10;99.90;;;;;;5013346;28;20299;-71
2022/08/08 06:26:01;;;;;;;18.87;11.43;;;18.10;99.90;;;;;;5012769;28;20209;-72
2022/08/08 06:28:33;;;;;;;21.67;13.20;;;18.10;99.90;;;;;;5011126;28;20210;-71
2022/08/08 06:31:02;;;;;;;18.23;12.20;;;18.10;99.90;;;;;;5011747;28;20207;-71
2022/08/08 06:33:36;;;;;;;18.70;12.27;;;18.10;99.90;;;;;;5013007;28;20657;-74
2022/08/08 06:36:05;;;;;;;17.87;12.23;;;18.10;99.90;;;;;;5012323;28;20604;-72
2022/08/08 06:38:36;;;;;;;17.53;11.87;;;18.10;99.90;;;;;;5012790;28;20293;-72
2022/08/08 06:41:06;;;;;;;17.60;11.47;;;18.10;99.90;;;;;;5012532;28;20281;-72
2022/08/08 06:43:37;;;;;;;15.77;11.07;;;18.20;99.90;;;;;;5012756;28;20206;-73
2022/08/08 06:46:04;;;;;;;18.27;12.37;;;18.20;99.90;;;;;;5010400;28;20210;-72
2022/08/08 06:48:32;;;;;;;20.50;12.43;;;18.30;99.90;;;;;;5012899;28;20801;-72
2022/08/08 06:51:00;;;;;;;23.73;12.30;;;18.30;99.90;;;;;;5012368;28;20289;-74
2022/08/08 06:53:27;;;;;;;17.00;11.87;;;18.30;99.90;;;;;;5012296;28;20261;-72
2022/08/08 06:55:54;;;;;;;19.17;11.70;;;18.20;99.90;;;;;;5011670;28;20264;-72
2022/08/08 06:58:21;;;;;;;17.57;11.43;;;18.20;99.90;;;;;;5012574;28;20207;-73
2022/08/08 07:00:50;;;;;;;19.30;13.23;;;18.30;99.90;;;;;;5010768;28;20265;-73
2022/08/08 07:03:30;;;;;;;17.97;11.57;;;18.20;99.90;;;;;;5012171;28;20223;-71
2022/08/08 07:05:59;;;;;;;16.17;10.47;;;18.20;99.90;;;;;;5012242;28;20696;-73
2022/08/08 07:08:33;;;;;;;18.13;12.30;;;18.30;99.90;;;;;;5011181;28;20957;-72
2022/08/08 07:11:04;;;;;;;16.07;11.13;;;18.40;99.90;;;;;;5010376;28;20285;-72
2022/08/08 07:13:37;;;;;;;15.73;10.77;;;18.50;99.90;;;;;;5009861;28;20208;-73
2022/08/08 07:16:12;;;;;;;14.97;11.70;;;18.60;99.90;;;;;;5009238;28;20208;-73
2022/08/08 07:18:51;;;;;;;16.70;11.27;;;18.70;99.90;;;;;;5000379;28;20211;-71
2022/08/08 07:21:20;;;;;;;16.87;11.37;;;18.80;99.90;;;;;;5012403;28;20295;-72
2022/08/08 07:23:58;;;;;;;14.97;10.77;;;18.90;99.90;;;;;;5011805;28;20222;-71
2022/08/08 07:26:26;;;;;;;18.60;11.80;;;18.90;99.90;;;;;;5012055;28;20237;-71
2022/08/08 07:28:54;;;;;;;17.13;11.83;;;19.00;99.90;;;;;;5015495;28;20226;-73
2022/08/08 07:31:23;;;;;;;18.87;11.20;;;19.00;99.90;;;;;;5018577;28;20657;-70
2022/08/08 07:33:51;;;;;;;15.40;10.80;;;19.00;99.90;;;;;;5000785;28;20321;-72
2022/08/08 07:36:20;;;;;;;16.43;11.87;;;19.00;99.90;;;;;;5010547;28;20231;-72
2022/08/08 07:38:48;;;;;;;17.07;11.23;;;19.10;99.90;;;;;;5021246;28;20198;-71
2022/08/08 07:41:18;;;;;;;19.70;11.77;;;19.10;99.90;;;;;;5015111;28;20256;-72
2022/08/08 07:43:45;;;;;;;16.67;11.90;;;19.10;99.90;;;;;;5020431;28;20304;-73
2022/08/08 07:46:12;;;;;;;15.90;12.13;;;19.00;99.90;;;;;;5015951;28;20206;-71
2022/08/08 07:48:40;;;;;;;20.90;12.63;;;19.00;99.90;;;;;;4992460;28;20749;-72
2022/08/08 07:51:09;;;;;;;15.30;11.70;;;18.90;99.90;;;;;;4998905;28;20291;-71
2022/08/08 07:53:44;;;;;;;20.03;12.33;;;18.90;99.90;;;;;;5011546;28;20295;-72
2022/08/08 07:56:13;;;;;;;16.03;12.00;;;18.90;99.90;;;;;;5030400;28;20211;-72
2022/08/08 07:58:42;;;;;;;19.13;12.43;;;18.80;99.90;;;;;;5031420;28;20297;-70
2022/08/08 08:01:12;;;;;;;17.77;11.83;;;18.90;99.90;;;;;;5031715;28;20547;-71
2022/08/08 08:03:49;;;;;;;19.30;12.03;;;18.90;99.90;;;;;;5020758;28;20278;-71
2022/08/08 08:06:19;;;;;;;17.73;12.00;;;18.80;99.90;;;;;;5011987;28;20241;-70
2022/08/08 08:08:49;;;;;;;16.00;10.80;;;18.90;99.90;;;;;;5014287;28;20243;-72
2022/08/08 08:11:22;;;;;;;19.40;12.60;;;19.00;99.90;;;;;;5018437;28;20297;-71
2022/08/08 08:13:56;;;;;;;17.13;11.70;;;19.10;99.90;;;;;;5016701;28;20203;-72
2022/08/08 08:16:25;;;;;;;18.60;12.10;;;19.10;99.90;;;;;;5016364;28;20719;-72
2022/08/08 08:18:55;;;;;;;17.50;12.40;;;19.10;99.90;;;;;;5017961;28;20713;-69
2022/08/08 08:21:24;;;;;;;18.17;12.33;;;19.10;99.90;;;;;;5015184;28;20210;-70
2022/08/08 08:23:51;;;;;;;21.40;13.23;;;19.10;99.90;;;;;;5014845;28;20301;-71
2022/08/08 08:26:20;;;;;;;17.80;12.27;;;19.10;99.90;;;;;;5015015;28;20262;-70
2022/08/08 08:28:47;;;;;;;19.90;12.20;;;19.20;99.90;;;;;;5015181;28;20211;-70
2022/08/08 08:31:14;;;;;;;18.27;12.53;;;19.10;99.90;;;;;;5014711;28;20198;-69
2022/08/08 08:33:41;;;;;;;21.97;13.23;;;19.20;99.90;;;;;;5014277;28;20329;-71
2022/08/08 08:36:10;;;;;;;17.13;12.87;;;19.20;99.90;;;;;;5014159;28;20645;-68
2022/08/08 08:38:37;;;;;;;17.60;13.53;;;19.20;99.90;;;;;;5014551;28;20203;-68
2022/08/08 08:41:05;;;;;;;18.53;13.87;;;19.20;99.90;;;;;;5014705;28;20652;-69
2022/08/08 08:43:34;;;;;;;18.77;12.87;;;19.20;99.90;;;;;;5013977;28;20286;-69
2022/08/08 08:46:02;;;;;;;19.90;14.00;;;19.20;99.90;;;;;;5018769;28;20297;-71
2022/08/08 08:48:29;;;;;;;18.57;13.13;;;19.30;99.90;;;;;;5016488;28;20689;-69
2022/08/08 08:50:58;;;;;;;21.90;14.40;;;19.30;99.90;;;;;;5016195;28;20652;-70
2022/08/08 08:53:26;;;;;;;22.93;14.83;;;19.30;99.90;;;;;;5015900;28;20341;-70
2022/08/08 08:55:55;;;;;;;28.60;16.90;;;19.20;99.90;;;;;;5013987;28;20299;-69
2022/08/08 08:58:31;;;;;;;23.00;15.77;;;19.20;99.90;;;;;;5014182;28;20210;-70
2022/08/08 09:01:00;;;;;;;20.40;14.00;;;19.20;99.90;;;;;;5016251;28;20214;-71
2022/08/08 09:03:29;;;;;;;20.03;13.87;;;19.20;99.90;;;;;;5014428;28;20214;-71
2022/08/08 09:05:56;;;;;;;27.13;14.63;;;19.20;99.90;;;;;;5017756;28;20281;-71
2022/08/08 09:08:27;;;;;;;23.90;14.43;;;19.30;99.90;;;;;;5014292;28;20691;-69
2022/08/08 09:10:55;;;;;;;21.73;14.77;;;19.40;99.90;;;;;;5014072;28;20216;-71
2022/08/08 09:13:23;;;;;;;25.70;14.43;;;19.40;99.90;;;;;;5014019;28;20299;-70
2022/08/08 09:15:50;;;;;;;20.73;14.80;;;19.40;99.90;;;;;;5013795;28;20301;-71
2022/08/08 09:18:17;;;;;;;23.07;14.57;;;19.40;99.90;;;;;;5016559;28;20204;-71
2022/08/08 09:20:45;;;;;;;24.60;14.13;;;19.40;99.90;;;;;;5014082;28;20289;-71
2022/08/08 09:23:14;;;;;;;19.53;13.97;;;19.40;99.90;;;;;;5013954;28;20318;-70
2022/08/08 09:25:48;;;;;;;20.33;13.10;;;19.50;99.90;;;;;;5013223;28;20254;-70
2022/08/08 09:28:15;;;;;;;21.00;14.33;;;19.50;99.90;;;;;;5012071;28;20238;-70
2022/08/08 09:30:44;;;;;;;22.33;15.17;;;19.50;99.90;;;;;;5022801;28;20261;-71
2022/08/08 09:33:13;;;;;;;24.83;14.83;;;19.60;99.90;;;;;;5013685;28;20673;-73
2022/08/08 09:35:45;;;;;;;19.83;14.77;;;19.60;99.90;;;;;;5013124;28;20313;-70
2022/08/08 09:38:19;;;;;;;17.57;12.13;;;19.70;99.90;;;;;;5032208;28;20213;-71
2022/08/08 09:40:51;;;;;;;23.37;15.20;;;19.70;99.90;;;;;;5033192;28;20634;-71
2022/08/08 09:43:24;;;;;;;19.67;13.93;;;19.80;99.90;;;;;;5032967;28;20281;-70
2022/08/08 09:45:59;;;;;;;19.13;13.53;;;19.60;99.90;;;;;;5033338;28;20714;-69
2022/08/08 09:48:29;;;;;;;16.93;12.70;;;19.70;99.90;;;;;;5013477;28;20300;-69
2022/08/08 09:50:57;;;;;;;18.33;12.87;;;19.70;99.90;;;;;;5013302;28;20711;-70
2022/08/08 09:53:33;;;;;;;15.03;12.07;;;19.80;99.90;;;;;;5012012;28;20776;-69
2022/08/08 09:56:03;;;;;;;19.07;14.50;;;19.90;99.90;;;;;;5013029;28;20245;-70
2022/08/08 09:58:37;;;;;;;17.17;11.83;;;20.00;99.90;;;;;;5013024;28;20199;-70
2022/08/08 10:01:07;;;;;;;15.23;11.40;;;20.10;99.90;;;;;;5022587;28;20675;-70
2022/08/08 10:03:36;;;;;;;16.47;11.77;;;20.20;99.90;;;;;;5003491;28;20207;-71
2022/08/08 10:06:13;;;;;;;16.97;12.67;;;20.20;99.90;;;;;;5004103;28;20298;-71
2022/08/08 10:08:44;;;;;;;17.07;12.03;;;20.30;99.90;;;;;;5016230;28;20626;-71
2022/08/08 10:11:16;;;;;;;18.17;11.80;;;20.30;99.90;;;;;;5018698;28;20236;-69
2022/08/08 10:13:53;;;;;;;16.37;11.53;;;20.40;99.90;;;;;;5013027;28;20198;-71
2022/08/08 10:16:21;;;;;;;18.00;12.43;;;20.40;99.90;;;;;;5014910;28;20687;-70
2022/08/08 10:18:49;;;;;;;17.47;12.00;;;20.40;99.90;;;;;;5002049;28;20709;-70
2022/08/08 10:21:18;;;;;;;14.97;10.73;;;20.50;99.90;;;;;;5012108;28;20294;-70
2022/08/08 10:23:46;;;;;;;17.40;12.03;;;20.50;99.90;;;;;;5010998;28;20241;-70
2022/08/08 10:26:20;;;;;;;13.90;10.93;;;20.50;99.90;;;;;;5010935;28;20209;-69
2022/08/08 10:28:55;;;;;;;16.20;10.43;;;20.50;99.90;;;;;;5012863;28;20200;-68
2022/08/08 10:34:15;;;;;;;15.13;10.63;;;20.50;99.90;;;;;;5012577;28;20184;-70
2022/08/08 10:36:43;;;;;;;13.27;10.33;;;20.50;99.90;;;;;;5011889;28;20206;-74
2022/08/08 10:39:11;;;;;;;14.77;11.33;;;20.50;99.90;;;;;;5016684;28;20203;-73
2022/08/08 10:41:41;;;;;;;15.73;11.10;;;20.50;99.90;;;;;;5010062;28;20293;-70
2022/08/08 10:44:12;;;;;;;15.17;11.37;;;20.40;99.90;;;;;;5010072;28;20301;-71
2022/08/08 10:46:39;;;;;;;15.40;10.50;;;20.30;99.90;;;;;;5008457;28;20254;-70
2022/08/08 10:49:06;;;;;;;16.00;10.30;;;20.30;99.90;;;;;;5012890;28;20293;-72
2022/08/08 10:51:36;;;;;;;16.03;10.33;;;20.30;99.90;;;;;;5011920;28;20218;-71
2022/08/08 10:54:03;;;;;;;15.40;11.47;;;20.30;99.90;;;;;;5011494;28;20238;-72
2022/08/08 10:56:34;;;;;;;14.83;10.67;;;20.30;99.90;;;;;;5010167;28;20214;-71
2022/08/08 10:59:06;;;;;;;15.10;10.83;;;20.40;99.90;;;;;;5015747;28;20289;-69
2022/08/08 11:01:36;;;;;;;14.63;10.67;;;20.40;99.90;;;;;;5016271;28;20648;-72
2022/08/08 11:04:07;;;;;;;13.97;10.63;;;20.40;99.90;;;;;;5029414;28;20230;-71
2022/08/08 11:06:37;;;;;;;14.13;10.33;;;20.50;99.90;;;;;;5023426;28;20224;-70
2022/08/08 11:09:05;;;;;;;17.80;11.70;;;20.50;99.90;;;;;;5012726;28;20207;-71
2022/08/08 11:11:38;;;;;;;19.83;11.87;;;20.50;99.90;;;;;;5011947;28;20229;-70
2022/08/08 11:14:07;;;;;;;16.23;10.83;;;20.40;99.90;;;;;;5013095;28;20197;-72
2022/08/08 11:16:35;;;;;;;20.07;12.67;;;20.50;99.90;;;;;;5012248;28;20650;-70
2022/08/08 11:19:04;;;;;;;17.57;12.10;;;20.40;99.90;;;;;;5022748;28;20701;-68
2022/08/08 11:21:35;;;;;;;21.50;12.80;;;20.30;99.90;;;;;;5007607;28;20292;-69
2022/08/08 11:24:06;;;;;;;22.23;12.07;;;20.30;99.90;;;;;;5010795;28;20352;-71
2022/08/08 11:26:37;;;;;;;17.23;11.57;;;20.20;99.90;;;;;;5019404;28;20608;-72
2022/08/08 11:29:07;;;;;;;16.47;11.73;;;20.20;99.90;;;;;;5011896;28;20661;-69
2022/08/08 11:31:36;;;;;;;19.67;13.13;;;20.30;99.90;;;;;;5011414;28;20317;-70
2022/08/08 11:34:04;;;;;;;18.57;12.17;;;20.20;99.90;;;;;;5012589;28;20243;-72
2022/08/08 11:36:33;;;;;;;18.20;11.53;;;20.20;99.90;;;;;;5012341;28;20323;-72
2022/08/08 11:39:00;;;;;;;18.17;13.20;;;20.20;99.90;;;;;;5016808;28;20212;-73
2022/08/08 11:41:28;;;;;;;15.93;11.87;;;20.10;99.90;;;;;;5018548;28;20226;-72
2022/08/08 11:43:56;;;;;;;17.40;11.57;;;20.10;99.90;;;;;;5016245;28;20300;-71
2022/08/08 11:46:26;;;;;;;18.03;11.57;;;20.20;99.90;;;;;;5015844;28;20304;-71
2022/08/08 11:48:53;;;;;;;14.57;10.77;;;20.20;99.90;;;;;;5012521;28;20238;-73
2022/08/08 11:51:22;;;;;;;15.97;10.27;;;20.20;99.90;;;;;;4996420;28;20228;-73
2022/08/08 11:53:50;;;;;;;14.70;10.87;;;20.30;99.90;;;;;;5013220;28;20272;-73
2022/08/08 11:56:23;;;;;;;13.73;10.90;;;20.50;99.90;;;;;;5015932;28;20285;-73
2022/08/08 11:58:52;;;;;;;16.20;10.90;;;20.60;99.90;;;;;;5016455;28;20289;-72
2022/08/08 12:01:32;;;;;;;16.37;11.87;;;20.70;99.90;;;;;;5012936;28;20202;-73
2022/08/08 12:03:59;;;;;;;13.27;10.10;;;20.80;99.90;;;;;;5011809;28;20293;-72
2022/08/08 12:06:26;;;;;;;14.67;10.87;;;20.90;99.90;;;;;;5016698;28;20260;-71
2022/08/08 12:09:04;;;;;;;14.73;10.47;;;21.10;99.90;;;;;;5016379;28;20234;-71
2022/08/08 12:11:38;;;;;;;17.33;10.80;;;21.20;99.90;;;;;;5014698;28;20217;-73
2022/08/08 12:14:05;;;;;;;14.83;10.60;;;21.20;99.90;;;;;;5014704;28;20203;-70
2022/08/08 12:16:34;;;;;;;14.60;9.27;;;21.20;99.90;;;;;;5010972;28;20591;-70
2022/08/08 12:19:10;;;;;;;12.87;9.77;;;21.30;99.90;;;;;;5009005;28;20618;-70
2022/08/08 12:21:36;;;;;;;11.53;9.20;;;21.40;99.90;;;;;;5016619;28;20608;-71
2022/08/08 12:24:05;;;;;;;12.03;9.37;;;21.50;99.90;;;;;;5015281;28;20681;-71
2022/08/08 12:26:37;;;;;;;11.87;9.03;;;21.60;99.90;;;;;;5023181;28;20214;-71
2022/08/08 12:29:25;;;;;;;10.83;8.50;;;21.60;99.90;;;;;;5032660;28;20194;-70
2022/08/08 12:32:05;;;;;;;12.70;8.63;;;21.70;99.90;;;;;;5015025;28;20305;-71
2022/08/08 12:34:36;;;;;;;10.40;7.93;;;21.80;99.90;;;;;;5014943;28;20635;-72
2022/08/08 12:37:05;;;;;;;10.33;8.13;;;21.90;99.90;;;;;;5014748;28;20225;-71
2022/08/08 12:39:32;;;;;;;10.10;8.30;;;22.00;99.90;;;;;;5015779;28;20199;-71
2022/08/08 12:42:00;;;;;;;19.17;9.77;;;22.00;99.90;;;;;;5030158;28;20194;-71
2022/08/08 12:44:28;;;;;;;12.10;8.93;;;22.00;99.90;;;;;;5024203;28;20272;-71
2022/08/08 12:46:56;;;;;;;13.70;8.63;;;22.00;99.90;;;;;;5034956;28;20756;-73
2022/08/08 12:49:29;;;;;;;11.60;8.90;;;21.90;99.90;;;;;;5035375;28;20206;-71
2022/08/08 12:51:58;;;;;;;13.40;9.77;;;21.80;99.90;;;;;;5022783;28;20575;-70
2022/08/08 12:54:28;;;;;;;12.23;8.50;;;21.80;99.90;;;;;;5014399;28;20298;-72
2022/08/08 12:56:55;;;;;;;11.47;8.83;;;21.90;99.90;;;;;;5014724;28;20291;-72
2022/08/08 12:59:24;;;;;;;12.43;8.90;;;21.90;99.90;;;;;;5015122;28;20278;-71
2022/08/08 13:01:53;;;;;;;11.00;8.53;;;21.90;99.90;;;;;;5012450;28;20199;-71
2022/08/08 13:04:21;;;;;;;14.13;7.83;;;21.90;99.90;;;;;;4999694;28;20619;-72
2022/08/08 13:06:58;;;;;;;11.13;7.67;;;21.90;99.90;;;;;;5014214;28;20225;-71
2022/08/08 13:09:37;;;;;;;9.80;7.97;;;21.90;99.90;;;;;;5007104;28;20195;-71
2022/08/08 13:12:17;;;;;;;10.37;8.13;;;22.00;99.90;;;;;;5014179;28;20294;-71
2022/08/08 13:14:46;;;;;;;10.33;7.73;;;22.00;99.90;;;;;;5014411;28;20202;-72